createdAt,value
2022-10-28T00:01:18.628Z,14.47
2022-10-28T00:03:47.680Z,14.41
2022-10-28T00:06:20.544Z,14.42
2022-10-28T00:08:47.294Z,14.40
2022-10-28T00:11:20.967Z,14.38
2022-10-28T00:13:48.180Z,14.35
2022-10-28T00:16:24.280Z,14.30
2022-10-28T00:18:53.740Z,14.28
2022-10-28T00:21:23.610Z,14.26
2022-10-28T00:23:50.361Z,14.19
2022-10-28T00:26:19.570Z,14.23
2022-10-28T00:28:53.336Z,14.21
2022-10-28T00:31:22.433Z,14.18
2022-10-28T00:33:48.973Z,14.09
2022-10-28T00:36:16.952Z,14.09
2022-10-28T00:38:45.204Z,14.05
2022-10-28T00:41:13.553Z,14.05
2022-10-28T00:43:48.256Z,14.04
2022-10-28T00:46:29.970Z,14.00
2022-10-28T00:49:14.437Z,13.94
2022-10-28T00:51:42.338Z,13.89
2022-10-28T00:54:08.941Z,13.86
2022-10-28T00:56:42.801Z,13.84
2022-10-28T00:59:18.509Z,13.84
2022-10-28T01:01:45.206Z,13.81
2022-10-28T01:04:13.362Z,13.82
2022-10-28T01:06:41.592Z,13.79
2022-10-28T01:09:07.973Z,13.78
2022-10-28T01:11:51.280Z,13.74
2022-10-28T01:14:32.522Z,13.71
2022-10-28T01:17:04.943Z,13.66
2022-10-28T01:19:51.662Z,13.64
2022-10-28T01:22:33.778Z,13.60
2022-10-28T01:25:45.483Z,13.60
2022-10-28T01:28:24.047Z,13.59
2022-10-28T01:31:25.798Z,13.58
2022-10-28T01:34:06.702Z,13.61
2022-10-28T01:36:42.166Z,13.64
2022-10-28T01:39:28.273Z,13.68
2022-10-28T01:42:06.939Z,13.68
2022-10-28T01:45:09.009Z,13.71
2022-10-28T01:48:01.929Z,13.76
2022-10-28T01:50:39.664Z,13.85
2022-10-28T01:53:21.195Z,14.00
2022-10-28T01:55:50.576Z,14.15
2022-10-28T01:58:21.243Z,14.31
2022-10-28T02:00:48.835Z,14.40
2022-10-28T02:03:16.236Z,14.46
2022-10-28T02:05:51.914Z,14.52
2022-10-28T02:08:18.277Z,14.53
2022-10-28T02:11:11.723Z,14.44
2022-10-28T02:13:44.130Z,14.35
2022-10-28T02:16:10.437Z,14.20
2022-10-28T02:18:58.470Z,14.12
2022-10-28T02:21:42.706Z,14.00
2022-10-28T02:24:22.278Z,13.85
2022-10-28T02:27:03.860Z,13.81
2022-10-28T02:29:40.919Z,13.75
2022-10-28T02:32:13.745Z,13.72
2022-10-28T02:34:44.610Z,13.67
2022-10-28T02:37:38.910Z,13.61
2022-10-28T02:40:12.351Z,13.57
2022-10-28T02:42:48.748Z,13.56
2022-10-28T02:45:28.117Z,13.55
2022-10-28T02:48:00.172Z,13.48
2022-10-28T02:50:33.417Z,13.48
2022-10-28T02:53:02.489Z,13.34
2022-10-28T02:55:35.170Z,13.31
2022-10-28T02:58:01.817Z,13.26
2022-10-28T03:00:28.205Z,13.24
2022-10-28T03:02:54.556Z,13.23
2022-10-28T03:05:20.947Z,13.24
2022-10-28T03:07:47.310Z,13.23
2022-10-28T03:10:13.845Z,13.24
2022-10-28T03:12:40.214Z,13.23
2022-10-28T03:15:07.069Z,13.22
2022-10-28T03:17:33.497Z,13.21
2022-10-28T03:20:00.008Z,13.22
2022-10-28T03:22:26.477Z,13.26
2022-10-28T03:24:52.838Z,13.31
2022-10-28T03:27:19.190Z,13.33
2022-10-28T03:29:46.264Z,13.38
2022-10-28T03:32:13.242Z,13.42
2022-10-28T03:34:39.924Z,13.42
2022-10-28T03:37:06.532Z,13.43
2022-10-28T03:39:32.887Z,13.41
2022-10-28T03:41:59.249Z,13.38
2022-10-28T03:44:25.623Z,13.36
2022-10-28T03:46:52.059Z,13.32
2022-10-28T03:49:18.437Z,13.33
2022-10-28T03:51:44.820Z,13.29
2022-10-28T03:54:11.161Z,13.22
2022-10-28T03:56:40.397Z,13.12
2022-10-28T03:59:08.998Z,13.04
2022-10-28T04:01:35.778Z,13.01
2022-10-28T04:04:02.263Z,13.05
2022-10-28T04:06:28.645Z,13.07
2022-10-28T04:08:55.050Z,13.10
2022-10-28T04:11:21.427Z,13.13
2022-10-28T04:13:47.768Z,13.16
2022-10-28T04:16:14.124Z,13.22
2022-10-28T04:18:40.517Z,13.29
2022-10-28T04:21:06.922Z,13.34
2022-10-28T04:23:33.270Z,13.40
2022-10-28T04:25:59.663Z,13.46
2022-10-28T04:28:26.161Z,13.54
2022-10-28T04:30:52.538Z,13.58
2022-10-28T04:33:18.915Z,13.62
2022-10-28T04:35:45.279Z,13.61
2022-10-28T04:38:13.838Z,13.59
2022-10-28T04:40:40.240Z,13.57
2022-10-28T04:43:08.575Z,13.55
2022-10-28T04:45:36.540Z,13.56
2022-10-28T04:48:03.047Z,13.55
2022-10-28T04:50:29.409Z,13.48
2022-10-28T04:52:56.214Z,13.41
2022-10-28T04:55:22.975Z,13.30
2022-10-28T04:57:56.825Z,13.23
2022-10-28T05:00:24.561Z,13.14
2022-10-28T05:02:51.356Z,13.06
2022-10-28T05:05:18.539Z,13.01
2022-10-28T05:07:45.927Z,12.99
2022-10-28T05:10:15.329Z,12.96
2022-10-28T05:12:43.137Z,12.92
2022-10-28T05:15:11.039Z,12.92
2022-10-28T05:17:44.708Z,12.93
2022-10-28T05:20:12.201Z,12.92
2022-10-28T05:22:38.642Z,12.91
2022-10-28T05:25:05.308Z,12.90
2022-10-28T05:27:31.767Z,12.92
2022-10-28T05:29:58.138Z,12.97
2022-10-28T05:32:24.486Z,12.97
2022-10-28T05:34:50.853Z,12.98
2022-10-28T05:37:17.274Z,12.98
2022-10-28T05:39:43.674Z,13.00
2022-10-28T05:42:10.047Z,12.99
2022-10-28T05:44:36.408Z,12.98
2022-10-28T05:47:02.814Z,12.98
2022-10-28T05:49:29.166Z,13.02
2022-10-28T05:51:55.520Z,13.07
2022-10-28T05:54:21.850Z,13.11
2022-10-28T05:56:48.200Z,13.15
2022-10-28T05:59:14.577Z,13.18
2022-10-28T06:01:41.035Z,13.26
2022-10-28T06:04:07.566Z,13.37
2022-10-28T06:06:33.961Z,13.45
2022-10-28T06:09:01.563Z,13.48
2022-10-28T06:11:26.435Z,13.46
2022-10-28T06:13:52.827Z,13.46
2022-10-28T06:16:19.218Z,13.45
2022-10-28T06:18:45.597Z,13.46
2022-10-28T06:21:12.046Z,13.46
2022-10-28T06:23:38.446Z,13.46
2022-10-28T06:26:04.882Z,13.48
2022-10-28T06:28:31.463Z,13.52
2022-10-28T06:31:02.257Z,13.56
2022-10-28T06:33:28.617Z,13.58
2022-10-28T06:35:56.484Z,13.57
2022-10-28T06:38:27.286Z,13.63
2022-10-28T06:40:56.721Z,13.64
2022-10-28T06:43:23.561Z,13.64
2022-10-28T06:45:55.402Z,13.64
2022-10-28T06:48:23.955Z,13.58
2022-10-28T06:50:50.389Z,13.57
2022-10-28T06:53:16.787Z,13.59
2022-10-28T06:55:48.585Z,13.61
2022-10-28T06:58:15.319Z,13.69
2022-10-28T07:00:41.713Z,13.70
2022-10-28T07:03:09.814Z,13.69
2022-10-28T07:05:36.341Z,13.68
2022-10-28T07:08:02.771Z,13.66
2022-10-28T07:10:29.136Z,13.72
2022-10-28T07:12:55.756Z,13.74
2022-10-28T07:15:22.620Z,13.79
2022-10-28T07:17:56.433Z,13.83
2022-10-28T07:20:24.582Z,13.82
2022-10-28T07:22:58.990Z,13.91
2022-10-28T07:25:26.874Z,13.97
2022-10-28T07:27:53.578Z,14.01
2022-10-28T07:30:20.185Z,14.01
2022-10-28T07:32:46.545Z,14.05
2022-10-28T07:35:12.939Z,14.07
2022-10-28T07:37:39.639Z,14.09
2022-10-28T07:40:07.055Z,14.15
2022-10-28T07:42:34.310Z,14.19
2022-10-28T07:45:00.702Z,14.22
2022-10-28T07:47:27.085Z,14.21
2022-10-28T07:49:54.350Z,14.23
2022-10-28T07:52:21.936Z,14.27
2022-10-28T07:54:48.534Z,14.39
2022-10-28T07:57:14.888Z,14.43
2022-10-28T07:59:41.247Z,14.47
2022-10-28T08:02:07.668Z,14.54
2022-10-28T08:04:34.142Z,14.62
2022-10-28T08:07:00.501Z,14.68
2022-10-28T08:09:27.227Z,14.77
2022-10-28T08:11:55.834Z,14.86
2022-10-28T08:14:22.332Z,14.91
2022-10-28T08:16:48.670Z,14.99
2022-10-28T08:19:15.008Z,15.03
2022-10-28T08:21:41.372Z,15.08
2022-10-28T08:24:08.010Z,15.11
2022-10-28T08:26:34.690Z,15.17
2022-10-28T08:29:01.500Z,15.16
2022-10-28T08:31:27.958Z,15.18
2022-10-28T08:33:54.341Z,15.21
2022-10-28T08:36:20.703Z,15.21
2022-10-28T08:38:47.155Z,15.18
2022-10-28T08:41:21.019Z,15.17
2022-10-28T08:44:06.004Z,15.20
2022-10-28T08:46:58.707Z,15.28
2022-10-28T08:49:25.798Z,15.27
2022-10-28T08:51:56.694Z,15.34
2022-10-28T08:54:31.842Z,15.38
2022-10-28T08:57:01.317Z,15.41
2022-10-28T08:59:32.364Z,15.43
2022-10-28T09:02:11.125Z,15.41
2022-10-28T09:04:43.200Z,15.44
2022-10-28T09:07:14.357Z,15.43
2022-10-28T09:09:40.662Z,15.43
2022-10-28T09:12:23.163Z,15.38
2022-10-28T09:15:21.548Z,15.38
2022-10-28T09:17:51.068Z,15.38
2022-10-28T09:20:21.077Z,15.41
2022-10-28T09:22:59.403Z,15.41
2022-10-28T09:25:49.936Z,15.49
2022-10-28T09:28:42.042Z,15.52
2022-10-28T09:31:16.828Z,15.56
2022-10-28T09:34:05.439Z,15.58
2022-10-28T09:36:42.119Z,15.61
2022-10-28T09:39:20.904Z,15.60
2022-10-28T09:41:50.907Z,15.63
2022-10-28T09:44:34.829Z,15.63
2022-10-28T09:47:05.321Z,15.60
2022-10-28T09:49:36.540Z,15.59
2022-10-28T09:52:08.886Z,15.57
2022-10-28T09:54:40.230Z,15.53
2022-10-28T09:57:06.950Z,15.48
2022-10-28T09:59:34.066Z,15.47
2022-10-28T10:02:00.809Z,15.50
2022-10-28T10:04:31.266Z,15.55
2022-10-28T10:07:09.259Z,15.63
2022-10-28T10:09:38.650Z,15.71
2022-10-28T10:12:10.645Z,15.83
2022-10-28T10:14:40.745Z,15.92
2022-10-28T10:17:14.937Z,16.04
2022-10-28T10:20:01.865Z,16.26
2022-10-28T10:22:49.203Z,16.49
2022-10-28T10:25:18.818Z,16.60
2022-10-28T10:28:03.559Z,16.64
2022-10-28T10:30:50.823Z,16.70
2022-10-28T10:33:24.398Z,16.76
2022-10-28T10:36:00.186Z,16.85
2022-10-28T10:38:28.120Z,16.91
2022-10-28T10:40:54.703Z,17.05
2022-10-28T10:43:31.736Z,17.21
2022-10-28T10:46:16.340Z,17.32
2022-10-28T10:48:43.289Z,17.40
2022-10-28T10:51:17.920Z,17.49
2022-10-28T10:53:49.335Z,17.69
2022-10-28T10:56:25.473Z,18.39
2022-10-28T10:58:55.029Z,19.06
2022-10-28T11:01:24.983Z,19.48
2022-10-28T11:06:36.785Z,19.42
2022-10-28T11:09:06.461Z,19.25
2022-10-28T11:11:38.210Z,19.07
2022-10-28T11:14:10.505Z,18.97
2022-10-28T11:16:51.511Z,18.83
2022-10-28T11:19:38.258Z,18.71
2022-10-28T11:22:16.501Z,18.58
2022-10-28T11:25:04.693Z,18.50
2022-10-28T11:27:51.705Z,18.46
2022-10-28T11:30:32.273Z,18.48
2022-10-28T11:33:30.456Z,18.76
2022-10-28T11:36:20.079Z,19.29
2022-10-28T11:39:01.447Z,19.64
2022-10-28T11:41:45.996Z,19.87
2022-10-28T11:44:27.917Z,20.38
2022-10-28T11:47:32.701Z,20.91
2022-10-28T11:50:13.295Z,21.50
2022-10-28T11:53:05.159Z,21.88
2022-10-28T11:55:57.070Z,22.29
2022-10-28T11:58:36.588Z,22.49
2022-10-28T12:01:27.397Z,22.82
2022-10-28T12:04:19.716Z,23.10
2022-10-28T12:07:07.493Z,23.45
2022-10-28T12:10:14.768Z,23.24
2022-10-28T12:13:08.451Z,23.13
2022-10-28T12:15:56.672Z,23.27
2022-10-28T12:18:32.814Z,23.56
2022-10-28T12:21:24.243Z,23.93
2022-10-28T12:23:53.191Z,24.20
2022-10-28T12:26:23.112Z,23.95
2022-10-28T12:28:53.892Z,23.61
2022-10-28T12:31:28.605Z,23.40
2022-10-28T12:36:29.632Z,23.02
2022-10-28T12:39:01.787Z,22.77
2022-10-28T12:41:46.542Z,22.66
2022-10-28T12:44:17.134Z,22.67
2022-10-28T12:47:42.158Z,23.04
2022-10-28T12:50:24.827Z,23.64
2022-10-28T12:53:18.563Z,24.04
2022-10-28T12:56:02.192Z,24.44
2022-10-28T12:58:47.396Z,24.85
2022-10-28T13:01:17.836Z,24.99
2022-10-28T13:03:44.297Z,24.60
2022-10-28T13:06:25.675Z,24.11
2022-10-28T13:09:01.330Z,23.60
2022-10-28T13:12:04.979Z,23.09
2022-10-28T13:14:56.151Z,22.68
2022-10-28T13:17:53.825Z,22.43
2022-10-28T13:20:48.834Z,22.29
2022-10-28T13:23:23.541Z,22.14
2022-10-28T13:26:06.033Z,22.02
2022-10-28T13:28:43.234Z,21.85
2022-10-28T13:31:09.904Z,21.86
2022-10-28T13:33:38.918Z,21.89
2022-10-28T13:36:16.333Z,21.90
2022-10-28T13:38:48.963Z,21.80
2022-10-28T13:41:42.233Z,21.65
2022-10-28T13:44:24.536Z,21.57
2022-10-28T13:46:56.945Z,21.59
2022-10-28T13:49:25.020Z,21.62
2022-10-28T13:52:07.922Z,21.59
2022-10-28T13:54:56.285Z,21.65
2022-10-28T13:57:33.044Z,21.80
2022-10-28T14:00:01.618Z,22.12
2022-10-28T14:02:38.459Z,22.56
2022-10-28T14:05:08.712Z,22.76
2022-10-28T14:07:38.262Z,23.05
2022-10-28T14:10:21.382Z,23.35
2022-10-28T14:12:52.426Z,23.52
2022-10-28T14:15:24.462Z,23.64
2022-10-28T14:18:00.908Z,23.87
2022-10-28T14:20:40.434Z,24.07
2022-10-28T14:23:22.100Z,24.11
2022-10-28T14:25:51.589Z,24.12
2022-10-28T14:28:27.000Z,24.19
2022-10-28T14:31:11.780Z,24.26
2022-10-28T14:33:44.354Z,24.36
2022-10-28T14:36:21.772Z,24.35
2022-10-28T14:39:03.467Z,23.93
2022-10-28T14:42:01.469Z,23.48
2022-10-28T14:44:53.443Z,23.01
2022-10-28T14:47:37.912Z,22.69
2022-10-28T14:50:18.989Z,22.50
2022-10-28T14:52:46.470Z,22.39
2022-10-28T14:55:23.971Z,22.25
2022-10-28T14:57:50.454Z,22.21
2022-10-28T15:00:19.680Z,22.22
2022-10-28T15:02:46.843Z,22.18
2022-10-28T15:05:25.828Z,22.10
2022-10-28T15:07:52.929Z,21.97
2022-10-28T15:10:25.872Z,21.88
2022-10-28T15:12:54.562Z,22.20
2022-10-28T15:15:23.823Z,22.47
2022-10-28T15:17:50.874Z,22.12
2022-10-28T15:20:30.608Z,21.77
2022-10-28T15:23:15.909Z,21.46
2022-10-28T15:25:42.270Z,21.22
2022-10-28T15:28:11.498Z,21.06
2022-10-28T15:30:45.780Z,20.91
2022-10-28T15:33:40.112Z,20.79
2022-10-28T15:36:27.017Z,20.63
2022-10-28T15:39:08.632Z,20.49
2022-10-28T15:41:43.674Z,20.38
2022-10-28T15:44:31.473Z,20.28
2022-10-28T15:46:59.589Z,20.20
2022-10-28T15:49:38.931Z,20.20
2022-10-28T15:52:21.613Z,20.21
2022-10-28T15:54:55.605Z,20.17
2022-10-28T15:57:24.532Z,20.03
2022-10-28T16:00:23.048Z,19.89
2022-10-28T16:03:01.998Z,19.73
2022-10-28T16:05:31.381Z,19.64
2022-10-28T16:07:59.491Z,19.56
2022-10-28T16:10:31.120Z,19.51
2022-10-28T16:12:57.647Z,19.47
2022-10-28T16:15:24.065Z,19.43
2022-10-28T16:17:50.512Z,19.38
2022-10-28T16:20:21.711Z,19.33
2022-10-28T16:22:48.356Z,19.23
2022-10-28T16:25:20.607Z,19.23
2022-10-28T16:27:47.998Z,19.14
2022-10-28T16:30:15.187Z,19.11
2022-10-28T16:32:47.138Z,19.06
2022-10-28T16:35:15.961Z,19.01
2022-10-28T16:37:44.717Z,18.94
2022-10-28T16:40:30.819Z,18.91
2022-10-28T16:43:01.380Z,18.88
2022-10-28T16:45:27.856Z,18.84
2022-10-28T16:47:54.514Z,18.80
2022-10-28T16:50:21.277Z,18.77
2022-10-28T16:52:47.615Z,18.74
2022-10-28T16:55:16.570Z,18.69
2022-10-28T16:57:42.930Z,18.56
2022-10-28T17:00:12.865Z,18.63
2022-10-28T17:02:39.898Z,18.61
2022-10-28T17:05:15.720Z,18.52
2022-10-28T17:07:42.102Z,18.58
2022-10-28T17:10:09.363Z,18.56
2022-10-28T17:12:35.765Z,18.54
2022-10-28T17:15:02.152Z,18.52
2022-10-28T17:17:28.511Z,18.48
2022-10-28T17:19:55.142Z,18.45
2022-10-28T17:22:21.582Z,18.48
2022-10-28T17:24:48.020Z,18.46
2022-10-28T17:27:14.544Z,18.44
2022-10-28T17:29:40.995Z,18.43
2022-10-28T17:32:08.604Z,18.43
2022-10-28T17:34:35.703Z,18.46
2022-10-28T17:37:02.080Z,18.48
2022-10-28T17:39:28.936Z,18.44
2022-10-28T17:41:55.350Z,18.51
2022-10-28T17:44:21.980Z,18.51
2022-10-28T17:46:49.382Z,18.48
2022-10-28T17:49:15.824Z,18.45
2022-10-28T17:51:42.250Z,18.44
2022-10-28T17:54:08.768Z,18.44
2022-10-28T17:56:35.927Z,18.46
2022-10-28T17:59:04.160Z,18.46
2022-10-28T18:01:32.743Z,18.44
2022-10-28T18:03:59.302Z,18.43
2022-10-28T18:06:26.050Z,18.40
2022-10-28T18:08:52.720Z,18.39
2022-10-28T18:11:22.651Z,18.39
2022-10-28T18:13:51.461Z,18.41
2022-10-28T18:16:21.090Z,18.42
2022-10-28T18:18:47.740Z,18.44
2022-10-28T18:21:14.677Z,18.43
2022-10-28T18:23:41.197Z,18.39
2022-10-28T18:26:11.646Z,18.38
2022-10-28T18:28:39.228Z,18.36
2022-10-28T18:31:14.323Z,18.36
2022-10-28T18:33:42.121Z,18.34
2022-10-28T18:36:16.581Z,18.34
2022-10-28T18:38:43.318Z,18.34
2022-10-28T18:41:11.411Z,18.31
2022-10-28T18:43:38.087Z,18.26
2022-10-28T18:46:04.619Z,18.16
2022-10-28T18:48:31.433Z,18.06
2022-10-28T18:50:59.468Z,17.98
2022-10-28T18:53:26.377Z,17.92
2022-10-28T18:55:53.120Z,17.83
2022-10-28T18:58:19.504Z,17.75
2022-10-28T19:00:46.053Z,17.67
2022-10-28T19:03:20.231Z,17.56
2022-10-28T19:05:46.669Z,17.45
2022-10-28T19:08:13.849Z,17.32
2022-10-28T19:10:40.600Z,17.21
2022-10-28T19:13:07.092Z,17.13
2022-10-28T19:15:34.875Z,17.05
2022-10-28T19:18:01.330Z,17.00
2022-10-28T19:20:27.790Z,16.93
2022-10-28T19:22:54.674Z,16.93
2022-10-28T19:25:21.278Z,16.94
2022-10-28T19:27:47.657Z,16.95
2022-10-28T19:30:14.217Z,16.96
2022-10-28T19:32:40.652Z,16.98
2022-10-28T19:35:07.378Z,17.02
2022-10-28T19:37:33.814Z,17.01
2022-10-28T19:40:00.190Z,17.02
2022-10-28T19:42:26.736Z,17.10
2022-10-28T19:44:53.177Z,17.15
2022-10-28T19:47:19.642Z,17.15
2022-10-28T19:49:46.037Z,17.18
2022-10-28T19:52:12.482Z,17.19
2022-10-28T19:54:38.879Z,17.18
2022-10-28T19:57:05.321Z,17.16
2022-10-28T19:59:31.755Z,17.11
2022-10-28T20:01:58.241Z,17.15
2022-10-28T20:04:24.782Z,17.14
2022-10-28T20:06:51.180Z,17.11
2022-10-28T20:09:17.656Z,17.13
2022-10-28T20:11:44.561Z,17.11
2022-10-28T20:14:12.657Z,17.11
2022-10-28T20:16:42.307Z,17.18
2022-10-28T20:19:08.979Z,17.20
2022-10-28T20:21:35.498Z,17.19
2022-10-28T20:24:05.760Z,17.18
2022-10-28T20:26:34.879Z,17.13
2022-10-28T20:29:02.913Z,17.03
2022-10-28T20:31:31.235Z,16.97
2022-10-28T20:34:00.559Z,16.88
2022-10-28T20:36:32.377Z,16.88
2022-10-28T20:39:03.768Z,16.83
2022-10-28T20:41:32.413Z,16.82
2022-10-28T20:43:59.331Z,16.82
2022-10-28T20:46:26.647Z,16.78
2022-10-28T20:48:56.738Z,16.73
2022-10-28T20:51:25.302Z,16.73
2022-10-28T20:53:52.072Z,16.69
2022-10-28T20:56:21.534Z,16.65
2022-10-28T20:58:47.983Z,16.70
2022-10-28T21:01:17.505Z,16.72
2022-10-28T21:03:44.891Z,16.72
2022-10-28T21:08:41.093Z,16.74
2022-10-28T21:11:10.384Z,16.78
2022-10-28T21:13:36.849Z,16.72
2022-10-28T21:16:05.283Z,16.66
2022-10-28T21:18:32.219Z,16.47
2022-10-28T21:20:59.747Z,16.42
2022-10-28T21:23:27.427Z,16.46
2022-10-28T21:25:59.748Z,16.48
2022-10-28T21:28:28.602Z,16.47
2022-10-28T21:31:03.503Z,16.40
2022-10-28T21:33:30.204Z,16.35
2022-10-28T21:35:57.959Z,16.26
2022-10-28T21:38:26.006Z,16.25
2022-10-28T21:41:11.614Z,16.27
2022-10-28T21:43:40.819Z,16.21
2022-10-28T21:46:07.795Z,16.15
2022-10-28T21:48:35.597Z,16.06
2022-10-28T21:51:07.327Z,15.97
2022-10-28T21:53:37.625Z,15.87
2022-10-28T21:56:16.943Z,15.80
2022-10-28T21:58:44.645Z,15.77
2022-10-28T22:01:13.802Z,15.72
2022-10-28T22:03:40.349Z,15.58
2022-10-28T22:06:07.386Z,15.48
2022-10-28T22:08:34.167Z,15.38
2022-10-28T22:11:23.786Z,15.32
2022-10-28T22:14:01.529Z,15.33
2022-10-28T22:16:30.124Z,15.30
2022-10-28T22:18:58.279Z,15.31
2022-10-28T22:21:27.323Z,15.34
2022-10-28T22:23:54.006Z,15.29
2022-10-28T22:26:23.216Z,15.30
2022-10-28T22:28:50.501Z,15.23
2022-10-28T22:31:19.323Z,15.15
2022-10-28T22:36:15.685Z,15.05
2022-10-28T22:38:42.329Z,15.03
2022-10-28T22:41:12.947Z,15.02
2022-10-28T22:43:40.840Z,15.03
2022-10-28T22:46:07.605Z,15.01
2022-10-28T22:48:33.988Z,15.05
2022-10-28T22:51:00.922Z,15.10
2022-10-28T22:53:27.754Z,15.12
2022-10-28T22:55:54.800Z,15.11
2022-10-28T22:58:23.248Z,15.05
2022-10-28T23:00:50.253Z,14.94
2022-10-28T23:03:16.851Z,14.87
2022-10-28T23:05:43.256Z,14.85
2022-10-28T23:08:14.925Z,14.87
2022-10-28T23:10:41.556Z,14.84
2022-10-28T23:13:11.838Z,14.78
2022-10-28T23:15:38.274Z,14.73
2022-10-28T23:18:04.664Z,14.68
2022-10-28T23:20:31.075Z,14.68
2022-10-28T23:22:57.590Z,14.70
2022-10-28T23:25:24.004Z,14.73
2022-10-28T23:27:50.375Z,14.81
2022-10-28T23:30:17.310Z,14.87
2022-10-28T23:32:43.665Z,14.94
2022-10-28T23:35:10.111Z,14.98
2022-10-28T23:37:36.731Z,15.04
2022-10-28T23:40:03.491Z,15.06
2022-10-28T23:42:29.911Z,15.12
2022-10-28T23:44:56.329Z,15.20
2022-10-28T23:47:22.768Z,15.21
2022-10-28T23:49:49.142Z,15.24
2022-10-28T23:52:15.585Z,15.27
2022-10-28T23:54:42.008Z,15.24
2022-10-28T23:57:08.429Z,15.25
2022-10-28T23:59:34.985Z,15.21
